Time;durP1;ratioP1;P1;durP2;ratioP2;P2;SDS_P1;SDS_P2;PMS_P1;PMS_P2;Temp;Humidity;BMP_temperature;BMP_pressure;BME280_temperature;BME280_humidity;BME280_pressure;Samples;Min_cycle;Max_cycle;Signal;HPM_P1;HPM_P2
2022/08/23 00:02:20;;;;;;;;;;;;;;;19.18;99.14;94680.50;5114617;27;1615;-49
2022/08/23 00:04:46;;;;;;;;;;;;;;;19.17;99.09;94678.03;5118356;27;2001;-49
2022/08/23 00:07:13;;;;;;;;;;;;;;;19.25;98.58;94680.41;5112035;28;1910;-49
2022/08/23 00:09:40;;;;;;;;;;;;;;;19.10;97.49;94675.38;5111776;28;1687;-49
2022/08/23 00:12:10;;;;;;;;;;;;;;;18.98;97.99;94678.00;5115906;27;1857;-49
2022/08/23 00:14:38;;;;;;;;;;;;;;;18.89;98.84;94682.91;5113534;27;1518;-49
2022/08/23 00:17:05;;;;;;;;;;;;;;;18.89;99.18;94677.50;5095234;27;1541;-49
2022/08/23 00:19:31;;;;;;;;;;;;;;;18.88;99.71;94680.41;5115484;27;1728;-49
2022/08/23 00:22:05;;;;;;;;;;;;;;;18.96;99.71;94682.00;5115316;27;2599;-48
2022/08/23 00:24:32;;;;;;;;;;;;;;;18.99;99.39;94676.97;5115786;27;1838;-49
2022/08/23 00:26:58;;;;;;;;;;;;;;;19.04;99.61;94674.41;5114277;27;1906;-49
2022/08/23 00:29:46;;;;;;;;;;;;;;;19.08;99.56;94682.91;5115930;27;1658;-49
2022/08/23 00:32:14;;;;;;;;;;;;;;;19.09;99.65;94679.97;5115540;27;1800;-49
2022/08/23 00:34:40;;;;;;;;;;;;;;;19.24;97.95;94674.19;5114133;27;1768;-49
2022/08/23 00:37:07;;;;;;;;;;;;;;;19.28;97.95;94669.97;5112470;28;1967;-49
2022/08/23 00:39:33;;;;;;;;;;;;;;;19.27;98.77;94678.31;5111980;28;1906;-48
2022/08/23 00:47:38;;;;;;;;;;;;;;;19.16;97.28;94674.50;5111940;28;1598;-49
2022/08/23 00:47:40;;;;;;;;;;;;;;;18.92;100.00;94668.91;5111795;28;1881;-49
2022/08/23 00:50:28;;;;;;;;;;;;;;;18.98;100.00;94672.59;5118321;27;1901;-49
2022/08/23 00:53:00;;;;;;;;;;;;;;;18.99;99.68;94673.41;5130265;27;1698;-49
2022/08/23 00:55:27;;;;;;;;;;;;;;;18.88;99.25;94666.88;5114099;28;1757;-49
2022/08/23 00:57:53;;;;;;;;;;;;;;;18.86;100.00;94660.88;5111734;28;1598;-49
2022/08/23 01:00:19;;;;;;;;;;;;;;;18.86;100.00;94660.88;5111205;28;1922;-49
2022/08/23 01:02:47;;;;;;;;;;;;;;;18.91;100.00;94652.88;5111592;28;1653;-49
2022/08/23 01:05:13;;;;;;;;;;;;;;;18.94;100.00;94657.03;5111453;28;2002;-49
2022/08/23 01:07:47;;;;;;;;;;;;;;;18.97;99.91;94661.97;5111645;28;1927;-49
2022/08/23 01:10:34;;;;;;;;;;;;;;;18.99;100.00;94660.72;5111623;28;1702;-49
2022/08/23 01:13:05;;;;;;;;;;;;;;;19.06;99.43;94658.75;5115748;28;1571;-49
2022/08/23 01:15:34;;;;;;;;;;;;;;;19.16;97.87;94666.38;5111672;28;1912;-49
2022/08/23 01:18:02;;;;;;;;;;;;;;;19.11;98.53;94660.78;5111650;28;1606;-49
2022/08/23 01:20:32;;;;;;;;;;;;;;;18.92;99.81;94676.22;5111456;28;1628;-49
2022/08/23 01:23:04;;;;;;;;;;;;;;;18.80;100.00;94673.41;5115991;28;1832;-49
2022/08/23 01:25:31;;;;;;;;;;;;;;;18.81;99.75;94674.25;5111535;28;1910;-49
2022/08/23 01:27:58;;;;;;;;;;;;;;;18.81;100.00;94677.78;5111617;28;1587;-49
2022/08/23 01:30:26;;;;;;;;;;;;;;;18.84;100.00;94674.63;5126799;28;1910;-48
2022/08/23 01:32:55;;;;;;;;;;;;;;;18.88;100.00;94683.13;5112833;28;2686;-49
2022/08/23 01:35:24;;;;;;;;;;;;;;;18.91;100.00;94683.50;5117425;28;1556;-49
2022/08/23 01:37:50;;;;;;;;;;;;;;;18.98;100.00;94678.00;5113380;28;1527;-49
2022/08/23 01:40:16;;;;;;;;;;;;;;;19.06;100.00;94677.69;5111107;28;1841;-49
2022/08/23 01:42:42;;;;;;;;;;;;;;;19.19;100.00;94687.56;5111394;28;1592;-49
2022/08/23 01:45:10;;;;;;;;;;;;;;;19.23;99.41;94687.94;5118151;27;1995;-49
2022/08/23 01:47:37;;;;;;;;;;;;;;;19.22;99.80;94689.03;5115065;27;1665;-49
2022/08/23 01:50:03;;;;;;;;;;;;;;;19.21;100.00;94688.16;5097135;28;1879;-49
2022/08/23 01:52:30;;;;;;;;;;;;;;;19.24;100.00;94687.72;5114618;27;1949;-49
2022/08/23 01:54:56;;;;;;;;;;;;;;;19.25;99.88;94689.38;5114855;27;1744;-49
2022/08/23 01:57:22;;;;;;;;;;;;;;;19.13;98.98;94690.38;5114946;27;1918;-49
2022/08/23 01:59:48;;;;;;;;;;;;;;;19.01;100.00;94690.25;5114859;27;1731;-49
2022/08/23 02:02:15;;;;;;;;;;;;;;;19.04;100.00;94681.69;5114662;27;1801;-48
2022/08/23 02:04:41;;;;;;;;;;;;;;;19.18;99.08;94685.94;5114876;27;1583;-49
2022/08/23 02:07:07;;;;;;;;;;;;;;;19.18;99.45;94679.66;5114260;27;1973;-49
2022/08/23 02:09:33;;;;;;;;;;;;;;;19.18;99.62;94680.50;5114782;27;1912;-49
2022/08/23 02:11:59;;;;;;;;;;;;;;;19.21;99.98;94693.59;5114718;27;1884;-49
2022/08/23 02:14:25;;;;;;;;;;;;;;;19.28;99.56;94690.81;5114319;27;1677;-49
2022/08/23 02:16:52;;;;;;;;;;;;;;;19.26;100.00;94688.34;5114389;27;1770;-49
2022/08/23 02:19:19;;;;;;;;;;;;;;;19.10;100.00;94687.06;5114478;27;1627;-49
2022/08/23 02:21:46;;;;;;;;;;;;;;;19.06;100.00;94693.13;5096085;27;2001;-49
2022/08/23 02:24:14;;;;;;;;;;;;;;;19.08;100.00;94680.19;5116949;27;1657;-49
2022/08/23 02:26:42;;;;;;;;;;;;;;;19.06;100.00;94683.13;5113856;27;1946;-49
2022/08/23 02:29:08;;;;;;;;;;;;;;;19.02;100.00;94683.81;5114209;28;1815;-48
2022/08/23 02:31:34;;;;;;;;;;;;;;;19.06;100.00;94685.84;5114200;28;1597;-49
2022/08/23 02:34:00;;;;;;;;;;;;;;;19.15;100.00;94682.84;5114006;27;2025;-49
2022/08/23 02:36:27;;;;;;;;;;;;;;;19.20;100.00;94693.81;5093049;27;2053;-49
2022/08/23 02:38:54;;;;;;;;;;;;;;;19.18;100.00;94698.63;5114379;27;1654;-49
2022/08/23 02:41:21;;;;;;;;;;;;;;;19.02;100.00;94692.75;5114066;28;1567;-49
2022/08/23 02:43:49;;;;;;;;;;;;;;;18.91;100.00;94691.63;5117359;27;1620;-49
2022/08/23 02:46:15;;;;;;;;;;;;;;;18.99;100.00;94705.91;5113842;27;1913;-49
2022/08/23 02:48:41;;;;;;;;;;;;;;;19.08;100.00;94712.72;5096247;28;1957;-49
2022/08/23 02:51:07;;;;;;;;;;;;;;;19.15;100.00;94728.91;5095804;28;1928;-49
2022/08/23 02:53:34;;;;;;;;;;;;;;;19.15;100.00;94729.72;5113777;28;1731;-48
2022/08/23 02:56:00;;;;;;;;;;;;;;;19.28;100.00;94732.28;5113285;28;1605;-49
2022/08/23 02:58:27;;;;;;;;;;;;;;;19.34;100.00;94729.75;5095787;28;1620;-48
2022/08/23 03:00:53;;;;;;;;;;;;;;;19.24;100.00;94733.81;5113396;27;1858;-49
2022/08/23 03:03:20;;;;;;;;;;;;;;;19.25;100.00;94732.72;5113473;27;2003;-49
2022/08/23 03:05:47;;;;;;;;;;;;;;;19.30;100.00;94732.06;5113516;27;1984;-49
2022/08/23 03:08:14;;;;;;;;;;;;;;;19.39;99.32;94738.84;5113553;27;1615;-49
2022/08/23 03:10:41;;;;;;;;;;;;;;;19.51;98.35;94742.44;5113657;27;1729;-49
2022/08/23 03:13:07;;;;;;;;;;;;;;;19.55;99.10;94745.53;5082759;28;1651;-49
2022/08/23 03:15:33;;;;;;;;;;;;;;;19.48;99.11;94750.22;5109807;27;1532;-49
2022/08/23 03:18:00;;;;;;;;;;;;;;;19.44;99.92;94749.81;5095301;28;1580;-49
2022/08/23 03:20:27;;;;;;;;;;;;;;;19.47;100.00;94754.81;5113211;28;1867;-49
2022/08/23 03:22:53;;;;;;;;;;;;;;;19.51;99.28;94750.59;5113232;27;1519;-49
2022/08/23 03:25:19;;;;;;;;;;;;;;;19.61;99.06;94760.06;5113288;27;1994;-49
2022/08/23 03:27:45;;;;;;;;;;;;;;;19.67;99.46;94765.44;5094989;28;1706;-49
2022/08/23 03:30:12;;;;;;;;;;;;;;;19.73;99.17;94757.44;5115140;27;1428;-49
2022/08/23 03:32:38;;;;;;;;;;;;;;;19.72;100.00;94759.34;5094798;27;1601;-49
2022/08/23 03:35:05;;;;;;;;;;;;;;;19.55;100.00;94759.09;5095073;28;1900;-49
2022/08/23 03:37:31;;;;;;;;;;;;;;;19.41;100.00;94761.16;5095079;27;1741;-49
2022/08/23 03:39:58;;;;;;;;;;;;;;;19.31;100.00;94756.25;5094861;28;1704;-49
2022/08/23 03:42:25;;;;;;;;;;;;;;;19.34;100.00;94749.53;5117389;27;1570;-49
2022/08/23 03:44:51;;;;;;;;;;;;;;;19.39;100.00;94744.28;5095423;27;2005;-48
2022/08/23 03:47:17;;;;;;;;;;;;;;;19.37;100.00;94737.41;5094555;28;1662;-48
2022/08/23 03:49:44;;;;;;;;;;;;;;;19.35;100.00;94753.06;5094414;28;1595;-49
2022/08/23 03:52:10;;;;;;;;;;;;;;;19.43;100.00;94766.34;5094218;28;1575;-49
2022/08/23 03:54:36;;;;;;;;;;;;;;;19.43;100.00;94775.28;5094489;28;1626;-49
2022/08/23 03:57:04;;;;;;;;;;;;;;;19.44;100.00;94767.97;5110409;27;1883;-49
2022/08/23 03:59:32;;;;;;;;;;;;;;;19.48;100.00;94771.91;5112343;28;1510;-49
2022/08/23 04:01:58;;;;;;;;;;;;;;;19.37;100.00;94778.06;5112581;27;1901;-48
2022/08/23 04:04:25;;;;;;;;;;;;;;;19.28;100.00;94785.69;5112673;28;1568;-49
2022/08/23 04:06:51;;;;;;;;;;;;;;;19.31;100.00;94794.19;5111645;27;1906;-49
2022/08/23 04:09:17;;;;;;;;;;;;;;;19.24;100.00;94793.44;5104711;27;1799;-49
2022/08/23 04:11:44;;;;;;;;;;;;;;;19.13;100.00;94791.44;5104193;27;1854;-49
2022/08/23 04:14:11;;;;;;;;;;;;;;;19.10;100.00;94794.59;5118586;27;1622;-49
2022/08/23 04:16:39;;;;;;;;;;;;;;;19.01;100.00;94790.50;5121956;27;1557;-49
2022/08/23 04:19:06;;;;;;;;;;;;;;;19.02;100.00;94795.72;5089038;27;1621;-49
2022/08/23 04:21:33;;;;;;;;;;;;;;;19.08;100.00;94794.00;5117573;27;1681;-49
2022/08/23 04:23:59;;;;;;;;;;;;;;;19.13;100.00;94791.44;5114011;27;1588;-49
2022/08/23 04:26:25;;;;;;;;;;;;;;;19.19;100.00;94795.97;5111970;28;1911;-49
2022/08/23 04:28:51;;;;;;;;;;;;;;;19.23;100.00;94790.94;5111738;28;1840;-49
2022/08/23 04:31:18;;;;;;;;;;;;;;;19.22;100.00;94802.84;5112065;28;1663;-49
2022/08/23 04:33:44;;;;;;;;;;;;;;;19.18;100.00;94798.91;5114216;27;1638;-49
2022/08/23 04:36:10;;;;;;;;;;;;;;;19.19;100.00;94803.28;5111892;27;2071;-49
2022/08/23 04:38:36;;;;;;;;;;;;;;;19.28;100.00;94801.94;5112225;28;1822;-49
2022/08/23 04:43:47;;;;;;;;;;;;;;;19.34;100.00;94817.31;5112401;27;1926;-49
2022/08/23 04:46:14;;;;;;;;;;;;;;;19.30;100.00;94818.81;5114858;27;2497;-48
2022/08/23 04:48:44;;;;;;;;;;;;;;;19.13;100.00;94821.25;5097426;28;1682;-48
2022/08/23 04:51:10;;;;;;;;;;;;;;;19.17;100.00;94821.66;5113668;27;1630;-48
2022/08/23 04:53:37;;;;;;;;;;;;;;;19.22;100.00;94822.63;5116552;27;1690;-48
2022/08/23 04:56:03;;;;;;;;;;;;;;;19.26;100.00;94823.03;5111194;28;2985;-48
2022/08/23 04:58:30;;;;;;;;;;;;;;;19.30;100.00;94822.34;5110927;28;3275;-48
2022/08/23 05:00:57;;;;;;;;;;;;;;;19.24;100.00;94825.94;5095664;28;2123;-48
2022/08/23 05:03:23;;;;;;;;;;;;;;;19.20;100.00;94826.59;5113845;28;2932;-48
2022/08/23 05:05:51;;;;;;;;;;;;;;;19.18;100.00;94824.13;5096628;28;2005;-48
2022/08/23 05:08:18;;;;;;;;;;;;;;;19.19;100.00;94831.19;5116638;27;1600;-49
2022/08/23 05:10:44;;;;;;;;;;;;;;;19.18;100.00;94836.84;5113649;28;1602;-49
2022/08/23 05:13:10;;;;;;;;;;;;;;;19.25;100.00;94827.59;5114901;28;1545;-48
2022/08/23 05:15:36;;;;;;;;;;;;;;;19.29;100.00;94823.41;5111336;28;2716;-48
2022/08/23 05:18:02;;;;;;;;;;;;;;;19.34;100.00;94827.31;5078871;28;1501;-49
2022/08/23 05:20:28;;;;;;;;;;;;;;;19.38;100.00;94836.66;5117305;27;1582;-48
2022/08/23 05:22:55;;;;;;;;;;;;;;;19.40;100.00;94831.84;5117108;27;1568;-48
2022/08/23 05:25:21;;;;;;;;;;;;;;;19.49;100.00;94839.44;5096956;28;1910;-48
2022/08/23 05:27:47;;;;;;;;;;;;;;;19.43;100.00;94840.38;5113299;27;1697;-48
2022/08/23 05:30:13;;;;;;;;;;;;;;;19.40;100.00;94838.09;5121978;27;1620;-48
2022/08/23 05:32:40;;;;;;;;;;;;;;;19.45;100.00;94834.72;5104230;27;1631;-48
2022/08/23 05:35:07;;;;;;;;;;;;;;;19.45;100.00;94835.53;5104624;27;1793;-48
2022/08/23 05:37:33;;;;;;;;;;;;;;;19.46;100.00;94831.78;5100456;27;1462;-48
2022/08/23 05:39:59;;;;;;;;;;;;;;;19.51;100.00;94836.53;5114998;27;1742;-48
2022/08/23 05:42:26;;;;;;;;;;;;;;;19.53;100.00;94833.59;5101771;27;1593;-48
2022/08/23 05:44:52;;;;;;;;;;;;;;;19.44;100.00;94838.47;5105020;27;1535;-48
2022/08/23 05:47:19;;;;;;;;;;;;;;;19.45;100.00;94843.66;5104655;27;1820;-48
2022/08/23 05:49:45;;;;;;;;;;;;;;;19.45;100.00;94842.84;5119007;27;1506;-48
2022/08/23 05:52:12;;;;;;;;;;;;;;;19.43;100.00;94842.25;5119133;27;2401;-48
2022/08/23 05:54:38;;;;;;;;;;;;;;;19.44;100.00;94838.47;5118418;27;1826;-48
2022/08/23 05:57:05;;;;;;;;;;;;;;;19.45;100.00;94845.56;5099066;27;1954;-48
2022/08/23 05:59:31;;;;;;;;;;;;;;;19.52;100.00;94843.63;5116203;27;1974;-49
2022/08/23 06:01:57;;;;;;;;;;;;;;;19.62;100.00;94848.53;5118979;27;1500;-48
2022/08/23 06:04:23;;;;;;;;;;;;;;;19.67;100.00;94848.66;5099307;27;1708;-48
2022/08/23 06:06:49;;;;;;;;;;;;;;;19.73;100.00;94846.97;5097628;27;2043;-48
2022/08/23 06:09:16;;;;;;;;;;;;;;;19.82;100.00;94859.16;5117990;27;1609;-49
2022/08/23 06:11:44;;;;;;;;;;;;;;;19.89;100.00;94857.22;5116372;27;1746;-52
2022/08/23 06:14:10;;;;;;;;;;;;;;;19.86;100.00;94849.53;5121158;27;1652;-48
2022/08/23 06:16:38;;;;;;;;;;;;;;;19.80;100.00;94853.16;5118307;27;1471;-48
2022/08/23 06:19:05;;;;;;;;;;;;;;;19.84;100.00;94854.34;5117219;27;1535;-48
2022/08/23 06:21:32;;;;;;;;;;;;;;;19.94;100.00;94851.09;5115340;27;1571;-48
2022/08/23 06:23:58;;;;;;;;;;;;;;;20.07;100.00;94850.94;5115020;27;1568;-48
2022/08/23 06:26:26;;;;;;;;;;;;;;;20.21;100.00;94855.16;5114116;27;1992;-48
2022/08/23 06:28:54;;;;;;;;;;;;;;;20.29;100.00;94856.72;5109290;28;1648;-49
2022/08/23 06:34:12;;;;;;;;;;;;;;;20.74;100.00;94850.91;5115726;27;1646;-48
2022/08/23 06:36:38;;;;;;;;;;;;;;;20.85;100.00;94865.59;5115167;27;1666;-49
2022/08/23 06:39:06;;;;;;;;;;;;;;;20.89;99.95;94866.78;5114680;27;1698;-49
2022/08/23 06:41:32;;;;;;;;;;;;;;;20.83;98.99;94863.13;5114057;27;1700;-49
2022/08/23 06:43:58;;;;;;;;;;;;;;;20.77;100.00;94868.63;5102847;27;1941;-49
2022/08/23 06:46:26;;;;;;;;;;;;;;;20.68;100.00;94868.16;5115769;27;1906;-49
2022/08/23 06:48:52;;;;;;;;;;;;;;;20.67;100.00;94872.72;5115085;27;1822;-49
2022/08/23 06:51:23;;;;;;;;;;;;;;;20.78;100.00;94867.59;5116738;27;2170;-49
2022/08/23 06:53:53;;;;;;;;;;;;;;;20.67;100.00;94870.00;5116696;27;1532;-49
2022/08/23 06:56:20;;;;;;;;;;;;;;;20.65;100.00;94865.88;5095550;28;1631;-49
2022/08/23 06:58:47;;;;;;;;;;;;;;;20.57;100.00;94868.91;5098395;27;1464;-49
2022/08/23 07:01:22;;;;;;;;;;;;;;;20.41;100.00;94863.06;5115544;27;1503;-49
2022/08/23 07:03:54;;;;;;;;;;;;;;;20.31;100.00;94875.50;5115461;27;1634;-49
2022/08/23 07:06:22;;;;;;;;;;;;;;;20.40;100.00;94874.13;5116864;27;1909;-49
2022/08/23 07:08:48;;;;;;;;;;;;;;;20.50;100.00;94874.41;5119306;27;1623;-49
2022/08/23 07:11:14;;;;;;;;;;;;;;;20.61;100.00;94872.84;5118808;27;1616;-49
2022/08/23 07:13:41;;;;;;;;;;;;;;;20.73;100.00;94883.75;5114237;27;2922;-49
2022/08/23 07:16:07;;;;;;;;;;;;;;;20.82;99.07;94877.75;5096821;27;2764;-49
2022/08/23 07:18:33;;;;;;;;;;;;;;;20.90;99.96;94883.91;5114575;27;1518;-49
2022/08/23 07:21:01;;;;;;;;;;;;;;;20.92;100.00;94881.78;5095357;28;1593;-49
2022/08/23 07:23:32;;;;;;;;;;;;;;;21.22;97.29;94879.84;5112719;28;1668;-49
2022/08/23 07:25:58;;;;;;;;;;;;;;;22.41;90.87;94888.81;5112207;27;1913;-49
2022/08/23 07:28:24;;;;;;;;;;;;;;;23.49;87.35;94886.16;5111702;27;1365;-49
2022/08/23 07:30:50;;;;;;;;;;;;;;;23.95;82.83;94877.88;5113174;28;1418;-49
2022/08/23 07:33:16;;;;;;;;;;;;;;;23.75;83.55;94887.38;5112422;27;1698;-49
2022/08/23 07:35:49;;;;;;;;;;;;;;;23.52;85.44;94888.41;5117415;27;1581;-50
2022/08/23 07:38:16;;;;;;;;;;;;;;;23.76;79.68;94883.56;5094382;28;1583;-49
2022/08/23 07:40:43;;;;;;;;;;;;;;;24.45;77.25;94876.06;5112532;27;1535;-49
2022/08/23 07:43:09;;;;;;;;;;;;;;;24.89;79.10;94870.56;5112356;27;1588;-49
2022/08/23 07:45:36;;;;;;;;;;;;;;;25.16;77.25;94875.22;5114542;27;1906;-50
2022/08/23 07:48:03;;;;;;;;;;;;;;;25.39;76.69;94874.06;5112065;27;1455;-49
2022/08/23 07:50:29;;;;;;;;;;;;;;;25.53;75.97;94864.31;5112952;27;1455;-49
2022/08/23 07:52:55;;;;;;;;;;;;;;;24.60;78.35;94864.50;5112337;28;1512;-49
2022/08/23 07:55:21;;;;;;;;;;;;;;;24.09;83.34;94864.66;5112327;27;1407;-49
2022/08/23 07:57:47;;;;;;;;;;;;;;;24.26;84.50;94861.88;5112404;27;1519;-49
2022/08/23 08:00:14;;;;;;;;;;;;;;;24.47;84.35;94865.69;5112248;27;1637;-49
2022/08/23 08:02:40;;;;;;;;;;;;;;;24.34;82.24;94862.28;5111996;27;1563;-49
2022/08/23 08:05:06;;;;;;;;;;;;;;;24.41;80.94;94867.53;5112222;28;1909;-49
2022/08/23 08:07:32;;;;;;;;;;;;;;;24.34;79.09;94869.66;5112338;27;1470;-49
2022/08/23 08:09:59;;;;;;;;;;;;;;;24.44;82.59;94871.69;5112189;27;1482;-49
2022/08/23 08:12:27;;;;;;;;;;;;;;;24.75;80.38;94872.88;5112116;27;1464;-49
2022/08/23 08:14:53;;;;;;;;;;;;;;;24.75;77.96;94878.34;5111957;27;1471;-49
2022/08/23 08:17:19;;;;;;;;;;;;;;;25.12;77.82;94886.66;5111961;28;1522;-49
2022/08/23 08:19:46;;;;;;;;;;;;;;;25.01;75.64;94884.09;5112192;27;1607;-49
2022/08/23 08:22:12;;;;;;;;;;;;;;;24.83;78.66;94893.47;5093928;27;1550;-49
2022/08/23 08:24:38;;;;;;;;;;;;;;;24.55;79.07;94887.97;5093958;28;1619;-50
2022/08/23 08:27:05;;;;;;;;;;;;;;;24.57;78.83;94893.19;5112017;28;1985;-49
2022/08/23 08:29:31;;;;;;;;;;;;;;;24.80;79.48;94888.53;5111902;28;1483;-49
2022/08/23 08:31:57;;;;;;;;;;;;;;;24.63;77.87;94894.06;5111881;27;1555;-50
2022/08/23 08:34:23;;;;;;;;;;;;;;;24.50;79.92;94892.50;5111911;28;1532;-50
2022/08/23 08:36:52;;;;;;;;;;;;;;;24.60;79.75;94891.84;5111985;28;1683;-49
2022/08/23 08:39:23;;;;;;;;;;;;;;;24.92;79.58;94894.66;5111829;27;1593;-49
2022/08/23 08:42:07;;;;;;;;;;;;;;;25.02;78.38;94897.47;5112325;27;1506;-49
2022/08/23 08:44:34;;;;;;;;;;;;;;;25.23;77.12;94892.25;5117011;27;1511;-49
2022/08/23 08:47:05;;;;;;;;;;;;;;;25.49;78.09;94885.09;5111645;28;1992;-49
2022/08/23 08:49:41;;;;;;;;;;;;;;;25.64;76.99;94881.66;5111735;27;1499;-50
2022/08/23 08:52:08;;;;;;;;;;;;;;;25.50;77.55;94871.16;5111084;28;1859;-49
2022/08/23 08:54:35;;;;;;;;;;;;;;;25.47;74.96;94871.66;5111253;28;1580;-49
2022/08/23 08:57:01;;;;;;;;;;;;;;;25.58;76.81;94874.50;5113839;27;1345;-49
2022/08/23 08:59:41;;;;;;;;;;;;;;;25.47;75.00;94870.84;5111639;28;1606;-50
2022/08/23 09:02:13;;;;;;;;;;;;;;;25.22;75.48;94868.69;5125269;28;1512;-50
2022/08/23 09:04:39;;;;;;;;;;;;;;;24.84;74.62;94862.31;5118814;28;1594;-49
2022/08/23 09:07:16;;;;;;;;;;;;;;;25.05;76.70;94858.69;5130417;28;1913;-49
2022/08/23 09:09:55;;;;;;;;;;;;;;;25.07;70.20;94859.25;5118157;28;1526;-49
2022/08/23 09:12:36;;;;;;;;;;;;;;;24.86;74.28;94860.16;5130017;28;1395;-49
2022/08/23 09:15:18;;;;;;;;;;;;;;;25.13;73.39;94854.66;5126949;28;1487;-49
2022/08/23 09:17:55;;;;;;;;;;;;;;;25.47;75.09;94846.22;5111286;28;1667;-49
2022/08/23 09:20:22;;;;;;;;;;;;;;;25.58;73.91;94856.16;5111242;28;1607;-49
2022/08/23 09:22:51;;;;;;;;;;;;;;;25.47;71.46;94854.44;5111707;28;1535;-49
2022/08/23 09:25:17;;;;;;;;;;;;;;;25.17;69.84;94857.69;5127097;28;1937;-49
2022/08/23 09:27:43;;;;;;;;;;;;;;;25.45;75.92;94857.41;5111589;28;1561;-49
2022/08/23 09:30:15;;;;;;;;;;;;;;;25.71;73.30;94849.41;5093046;28;1564;-49
2022/08/23 09:32:43;;;;;;;;;;;;;;;25.83;71.51;94843.72;5120362;28;1431;-50
2022/08/23 09:35:16;;;;;;;;;;;;;;;25.77;71.57;94848.34;5111375;28;1638;-50
2022/08/23 09:37:47;;;;;;;;;;;;;;;25.79;69.42;94851.63;5111008;28;1575;-49
2022/08/23 09:40:13;;;;;;;;;;;;;;;25.92;71.66;94852.31;5111217;28;1557;-50
2022/08/23 09:42:40;;;;;;;;;;;;;;;26.15;69.65;94853.81;5111494;28;1419;-50
2022/08/23 09:45:23;;;;;;;;;;;;;;;26.10;69.26;94852.69;5115398;27;1994;-50
2022/08/23 09:47:49;;;;;;;;;;;;;;;26.16;70.54;94845.31;5113489;28;1570;-50
2022/08/23 09:50:23;;;;;;;;;;;;;;;25.80;67.81;94853.31;5110927;28;1620;-49
2022/08/23 09:52:53;;;;;;;;;;;;;;;25.79;69.42;94845.34;5110813;28;1596;-50
2022/08/23 09:55:55;;;;;;;;;;;;;;;25.86;72.59;94851.44;5110788;28;1578;-50
2022/08/23 09:58:35;;;;;;;;;;;;;;;25.88;68.62;94854.72;5047457;28;1554;-49
2022/08/23 10:01:12;;;;;;;;;;;;;;;26.11;69.79;94850.75;5122209;28;1698;-50
2022/08/23 10:03:40;;;;;;;;;;;;;;;26.15;70.05;94849.13;5114636;28;1602;-50
2022/08/23 10:06:08;;;;;;;;;;;;;;;25.94;66.85;94848.22;5118195;27;1901;-50
2022/08/23 10:08:36;;;;;;;;;;;;;;;25.95;68.95;94844.34;5114602;28;1558;-50
2022/08/23 10:11:15;;;;;;;;;;;;;;;26.04;66.61;94845.50;5114617;27;1448;-50
2022/08/23 10:13:41;;;;;;;;;;;;;;;26.26;66.46;94844.53;5114731;28;1677;-50
2022/08/23 10:16:19;;;;;;;;;;;;;;;26.14;68.21;94844.72;5114226;27;1508;-49
2022/08/23 10:18:49;;;;;;;;;;;;;;;26.04;63.21;94844.69;5114440;27;1613;-49
2022/08/23 10:21:19;;;;;;;;;;;;;;;25.99;65.19;94840.03;5114151;27;1517;-49
2022/08/23 10:24:04;;;;;;;;;;;;;;;26.11;64.76;94834.34;5114306;27;1519;-50
2022/08/23 10:26:31;;;;;;;;;;;;;;;26.34;67.14;94837.72;5133153;27;2051;-50
2022/08/23 10:31:57;;;;;;;;;;;;;;;26.49;67.30;94835.03;5114994;27;1597;-50
2022/08/23 10:34:48;;;;;;;;;;;;;;;26.38;67.31;94834.16;5114328;27;1630;-50
2022/08/23 10:37:33;;;;;;;;;;;;;;;26.44;67.70;94835.81;5116273;27;1608;-50
2022/08/23 10:40:09;;;;;;;;;;;;;;;26.47;68.33;94832.56;5114121;28;1594;-50
2022/08/23 10:42:44;;;;;;;;;;;;;;;26.47;64.42;94829.81;5114046;28;1490;-50
2022/08/23 10:45:15;;;;;;;;;;;;;;;26.15;69.47;94823.66;5118196;27;1988;-49
2022/08/23 10:48:00;;;;;;;;;;;;;;;26.07;66.11;94830.47;5096316;27;1687;-50
2022/08/23 10:50:34;;;;;;;;;;;;;;;26.00;64.33;94818.94;5132944;27;1635;-50
2022/08/23 10:53:04;;;;;;;;;;;;;;;25.93;66.45;94821.09;5129910;27;1698;-50
2022/08/23 10:55:53;;;;;;;;;;;;;;;26.01;67.65;94815.09;5113651;27;1571;-50
2022/08/23 10:58:21;;;;;;;;;;;;;;;26.26;69.31;94814.41;5122714;27;1391;-50
2022/08/23 11:00:48;;;;;;;;;;;;;;;26.50;68.55;94822.97;5113370;27;1418;-50
2022/08/23 11:03:18;;;;;;;;;;;;;;;26.69;66.59;94817.84;5113680;28;1549;-50
2022/08/23 11:06:04;;;;;;;;;;;;;;;26.84;66.98;94822.53;5113314;27;1998;-50
2022/08/23 11:08:32;;;;;;;;;;;;;;;26.69;64.21;94826.06;5113415;27;1689;-49
2022/08/23 11:10:58;;;;;;;;;;;;;;;26.72;63.40;94824.72;5114923;27;2993;-49
2022/08/23 11:13:26;;;;;;;;;;;;;;;26.60;67.21;94823.03;5113044;27;2723;-49
2022/08/23 11:15:55;;;;;;;;;;;;;;;26.55;61.59;94827.66;5115827;27;2739;-50
2022/08/23 11:18:25;;;;;;;;;;;;;;;26.52;61.54;94820.78;5112930;27;1523;-50
2022/08/23 11:20:54;;;;;;;;;;;;;;;26.73;66.52;94824.44;5114758;27;1424;-50
2022/08/23 11:23:39;;;;;;;;;;;;;;;26.79;62.52;94826.09;5116527;27;1447;-50
2022/08/23 11:26:07;;;;;;;;;;;;;;;26.91;64.06;94806.66;5114163;27;1921;-50
2022/08/23 11:28:42;;;;;;;;;;;;;;;26.93;62.99;94806.38;5115865;27;2689;-50
2022/08/23 11:31:08;;;;;;;;;;;;;;;26.99;63.41;94808.03;5112175;27;1678;-50
2022/08/23 11:33:41;;;;;;;;;;;;;;;27.01;63.59;94806.66;5112685;27;1437;-50
2022/08/23 11:36:07;;;;;;;;;;;;;;;27.07;63.55;94791.84;5114444;27;1542;-50
2022/08/23 11:38:45;;;;;;;;;;;;;;;27.17;63.97;94787.47;5113970;27;1481;-50
2022/08/23 11:41:20;;;;;;;;;;;;;;;26.79;60.68;94800.59;5114039;27;1504;-50
2022/08/23 11:43:48;;;;;;;;;;;;;;;26.39;63.50;94802.09;5114509;27;1753;-50
2022/08/23 11:46:14;;;;;;;;;;;;;;;26.28;63.61;94795.78;5113243;27;1918;-50
2022/08/23 11:48:42;;;;;;;;;;;;;;;26.21;64.31;94801.50;5115036;27;1218;-50
2022/08/23 11:51:11;;;;;;;;;;;;;;;26.05;67.48;94811.56;5112674;27;1715;-51
2022/08/23 11:53:37;;;;;;;;;;;;;;;25.97;67.66;94813.97;5111932;27;1561;-50
2022/08/23 11:56:16;;;;;;;;;;;;;;;25.84;70.88;94805.13;5116666;27;1522;-49
2022/08/23 11:58:56;;;;;;;;;;;;;;;25.69;70.30;94816.00;5113314;27;2976;-51
2022/08/23 12:01:30;;;;;;;;;;;;;;;25.46;72.16;94815.28;5117431;27;2871;-51
2022/08/23 12:04:07;;;;;;;;;;;;;;;25.21;72.64;94812.31;5112322;27;2523;-51
2022/08/23 12:06:35;;;;;;;;;;;;;;;24.96;75.36;94805.53;5116589;27;2547;-51
2022/08/23 12:09:04;;;;;;;;;;;;;;;24.85;75.33;94809.28;5115858;27;1473;-51
2022/08/23 12:11:49;;;;;;;;;;;;;;;24.77;75.17;94802.38;5111945;28;1485;-51
2022/08/23 12:14:30;;;;;;;;;;;;;;;24.62;75.64;94803.03;5114590;27;1611;-51
2022/08/23 12:17:00;;;;;;;;;;;;;;;24.55;75.53;94805.16;5127896;27;1601;-50
2022/08/23 12:19:30;;;;;;;;;;;;;;;24.44;76.29;94793.25;5118298;27;2496;-51
2022/08/23 12:22:03;;;;;;;;;;;;;;;24.32;78.03;94798.03;5111750;27;1550;-51
2022/08/23 12:24:40;;;;;;;;;;;;;;;24.27;78.86;94795.25;5112399;28;1539;-51
2022/08/23 12:27:25;;;;;;;;;;;;;;;24.24;78.36;94785.66;5111380;28;1988;-51
2022/08/23 12:29:56;;;;;;;;;;;;;;;24.13;78.04;94782.00;5111982;27;1530;-49
2022/08/23 12:32:32;;;;;;;;;;;;;;;23.92;80.71;94789.13;5111932;27;1395;-49
2022/08/23 12:34:58;;;;;;;;;;;;;;;23.84;80.80;94789.53;5111763;28;1852;-51
2022/08/23 12:37:30;;;;;;;;;;;;;;;23.81;81.33;94794.66;5113324;27;1536;-49
2022/08/23 12:39:57;;;;;;;;;;;;;;;23.76;81.29;94801.69;5118350;27;1664;-50
2022/08/23 12:42:25;;;;;;;;;;;;;;;23.69;80.31;94806.50;5111528;28;1602;-49
2022/08/23 12:45:00;;;;;;;;;;;;;;;23.67;79.15;94799.66;5113089;27;1412;-49
2022/08/23 12:47:26;;;;;;;;;;;;;;;23.63;78.75;94806.69;5111596;28;1996;-50
2022/08/23 12:49:54;;;;;;;;;;;;;;;23.58;79.84;94804.69;5093219;28;1857;-49
2022/08/23 12:56:02;;;;;;;;;;;;;;;23.49;81.40;94809.78;5104882;28;2552;-48
2022/08/23 12:58:30;;;;;;;;;;;;;;;23.46;82.32;94804.00;5099359;28;1344;-49
2022/08/23 13:00:58;;;;;;;;;;;;;;;23.40;82.76;94805.81;5101564;28;2504;-49
2022/08/23 13:03:31;;;;;;;;;;;;;;;23.39;80.96;94809.59;5105967;28;1508;-49
2022/08/23 13:06:06;;;;;;;;;;;;;;;23.45;80.77;94799.59;5104997;28;1988;-49
2022/08/23 13:08:32;;;;;;;;;;;;;;;23.52;80.18;94800.25;5100970;28;1378;-49
2022/08/23 13:10:58;;;;;;;;;;;;;;;23.64;80.57;94800.13;5109779;28;1532;-49
2022/08/23 13:13:25;;;;;;;;;;;;;;;23.69;81.88;94802.94;5106987;28;2532;-50
2022/08/23 13:15:53;;;;;;;;;;;;;;;23.69;81.17;94820.13;5103258;28;1323;-49
2022/08/23 13:18:46;;;;;;;;;;;;;;;23.71;80.73;94818.00;5105236;28;1287;-50